sensor_id;sensor_type;location;lat;lon;timestamp;temperature;humidity
48860;DHT22;34679;51.436;-2.518;2023-06-14T00:00:40;18.40;98.60
48860;DHT22;34679;51.436;-2.518;2023-06-14T00:03:09;18.30;98.50
48860;DHT22;34679;51.436;-2.518;2023-06-14T00:05:37;18.30;98.60
48860;DHT22;34679;51.436;-2.518;2023-06-14T00:08:07;18.20;98.80
48860;DHT22;34679;51.436;-2.518;2023-06-14T00:10:34;18.10;98.90
48860;DHT22;34679;51.436;-2.518;2023-06-14T00:13:03;17.90;99.10
48860;DHT22;34679;51.436;-2.518;2023-06-14T00:15:30;17.80;99.20
48860;DHT22;34679;51.436;-2.518;2023-06-14T00:17:57;17.70;99.30
48860;DHT22;34679;51.436;-2.518;2023-06-14T00:20:29;17.70;99.20
48860;DHT22;34679;51.436;-2.518;2023-06-14T00:22:56;17.80;99.20
48860;DHT22;34679;51.436;-2.518;2023-06-14T00:25:25;17.70;99.20
48860;DHT22;34679;51.436;-2.518;2023-06-14T00:27:52;17.70;99.20
48860;DHT22;34679;51.436;-2.518;2023-06-14T00:30:18;17.60;99.20
48860;DHT22;34679;51.436;-2.518;2023-06-14T00:32:44;17.70;99.10
48860;DHT22;34679;51.436;-2.518;2023-06-14T00:35:11;17.70;99.00
48860;DHT22;34679;51.436;-2.518;2023-06-14T00:37:37;17.80;99.00
48860;DHT22;34679;51.436;-2.518;2023-06-14T00:40:04;17.70;99.00
48860;DHT22;34679;51.436;-2.518;2023-06-14T00:42:30;17.70;99.00
48860;DHT22;34679;51.436;-2.518;2023-06-14T00:44:56;17.70;99.10
48860;DHT22;34679;51.436;-2.518;2023-06-14T00:47:22;17.70;99.10
48860;DHT22;34679;51.436;-2.518;2023-06-14T00:49:49;17.60;99.10
48860;DHT22;34679;51.436;-2.518;2023-06-14T00:52:16;17.60;99.20
48860;DHT22;34679;51.436;-2.518;2023-06-14T00:54:42;17.50;99.30
48860;DHT22;34679;51.436;-2.518;2023-06-14T00:57:12;17.50;99.40
48860;DHT22;34679;51.436;-2.518;2023-06-14T00:59:45;17.30;99.50
48860;DHT22;34679;51.436;-2.518;2023-06-14T01:02:12;17.30;99.40
48860;DHT22;34679;51.436;-2.518;2023-06-14T01:04:41;17.30;99.30
48860;DHT22;34679;51.436;-2.518;2023-06-14T01:07:33;17.20;99.20
48860;DHT22;34679;51.436;-2.518;2023-06-14T01:12:58;17.20;99.00
48860;DHT22;34679;51.436;-2.518;2023-06-14T01:15:28;17.10;99.00
48860;DHT22;34679;51.436;-2.518;2023-06-14T01:17:55;17.10;99.00
48860;DHT22;34679;51.436;-2.518;2023-06-14T01:20:30;17.10;99.00
48860;DHT22;34679;51.436;-2.518;2023-06-14T01:22:56;17.10;98.90
48860;DHT22;34679;51.436;-2.518;2023-06-14T01:25:22;17.00;98.70
48860;DHT22;34679;51.436;-2.518;2023-06-14T01:27:50;17.00;98.80
48860;DHT22;34679;51.436;-2.518;2023-06-14T01:30:17;16.80;98.90
48860;DHT22;34679;51.436;-2.518;2023-06-14T01:32:44;16.80;99.00
48860;DHT22;34679;51.436;-2.518;2023-06-14T01:35:10;16.70;99.10
48860;DHT22;34679;51.436;-2.518;2023-06-14T01:37:36;16.60;99.10
48860;DHT22;34679;51.436;-2.518;2023-06-14T01:40:04;16.60;99.20
48860;DHT22;34679;51.436;-2.518;2023-06-14T01:42:36;16.60;99.20
48860;DHT22;34679;51.436;-2.518;2023-06-14T01:45:04;16.60;99.30
48860;DHT22;34679;51.436;-2.518;2023-06-14T01:47:32;16.50;99.40
48860;DHT22;34679;51.436;-2.518;2023-06-14T01:49:58;16.50;99.30
48860;DHT22;34679;51.436;-2.518;2023-06-14T01:52:24;16.50;99.00
48860;DHT22;34679;51.436;-2.518;2023-06-14T01:54:50;16.50;99.10
48860;DHT22;34679;51.436;-2.518;2023-06-14T01:57:16;16.50;99.10
48860;DHT22;34679;51.436;-2.518;2023-06-14T01:59:41;16.50;98.90
48860;DHT22;34679;51.436;-2.518;2023-06-14T02:02:07;16.40;98.80
48860;DHT22;34679;51.436;-2.518;2023-06-14T02:04:33;16.40;98.80
48860;DHT22;34679;51.436;-2.518;2023-06-14T02:06:59;16.30;98.90
48860;DHT22;34679;51.436;-2.518;2023-06-14T02:09:25;16.30;98.90
48860;DHT22;34679;51.436;-2.518;2023-06-14T02:11:51;16.10;99.00
48860;DHT22;34679;51.436;-2.518;2023-06-14T02:14:17;16.00;98.90
48860;DHT22;34679;51.436;-2.518;2023-06-14T02:16:43;16.00;99.00
48860;DHT22;34679;51.436;-2.518;2023-06-14T02:19:18;15.90;99.00
48860;DHT22;34679;51.436;-2.518;2023-06-14T02:21:44;15.90;99.00
48860;DHT22;34679;51.436;-2.518;2023-06-14T02:24:10;15.90;98.90
48860;DHT22;34679;51.436;-2.518;2023-06-14T02:26:37;15.90;98.60
48860;DHT22;34679;51.436;-2.518;2023-06-14T02:29:09;15.80;98.50
48860;DHT22;34679;51.436;-2.518;2023-06-14T02:31:38;15.80;98.50
48860;DHT22;34679;51.436;-2.518;2023-06-14T02:34:03;15.70;98.50
48860;DHT22;34679;51.436;-2.518;2023-06-14T02:36:29;15.70;98.50
48860;DHT22;34679;51.436;-2.518;2023-06-14T02:38:56;15.70;98.60
48860;DHT22;34679;51.436;-2.518;2023-06-14T02:41:24;15.60;98.60
48860;DHT22;34679;51.436;-2.518;2023-06-14T02:43:51;15.40;98.70
48860;DHT22;34679;51.436;-2.518;2023-06-14T02:46:17;15.40;98.90
48860;DHT22;34679;51.436;-2.518;2023-06-14T02:48:43;15.30;98.80
48860;DHT22;34679;51.436;-2.518;2023-06-14T02:51:09;15.20;99.00
48860;DHT22;34679;51.436;-2.518;2023-06-14T02:53:35;15.20;99.10
48860;DHT22;34679;51.436;-2.518;2023-06-14T02:56:02;15.20;99.00
48860;DHT22;34679;51.436;-2.518;2023-06-14T02:58:29;15.20;98.90
48860;DHT22;34679;51.436;-2.518;2023-06-14T03:00:55;15.20;98.70
48860;DHT22;34679;51.436;-2.518;2023-06-14T03:03:21;15.10;98.80
48860;DHT22;34679;51.436;-2.518;2023-06-14T03:05:50;15.10;98.80
48860;DHT22;34679;51.436;-2.518;2023-06-14T03:08:17;15.00;98.90
48860;DHT22;34679;51.436;-2.518;2023-06-14T03:10:46;15.00;98.80
48860;DHT22;34679;51.436;-2.518;2023-06-14T03:13:15;14.90;98.80
48860;DHT22;34679;51.436;-2.518;2023-06-14T03:15:46;14.80;98.80
48860;DHT22;34679;51.436;-2.518;2023-06-14T03:18:13;14.80;98.90
48860;DHT22;34679;51.436;-2.518;2023-06-14T03:20:40;14.80;99.00
48860;DHT22;34679;51.436;-2.518;2023-06-14T03:23:07;14.70;99.10
48860;DHT22;34679;51.436;-2.518;2023-06-14T03:25:32;14.60;99.30
48860;DHT22;34679;51.436;-2.518;2023-06-14T03:28:04;14.50;99.60
48860;DHT22;34679;51.436;-2.518;2023-06-14T03:30:30;14.50;99.60
48860;DHT22;34679;51.436;-2.518;2023-06-14T03:32:56;14.40;99.60
48860;DHT22;34679;51.436;-2.518;2023-06-14T03:35:23;14.40;99.70
48860;DHT22;34679;51.436;-2.518;2023-06-14T03:37:49;14.40;99.90
48860;DHT22;34679;51.436;-2.518;2023-06-14T03:40:16;14.40;99.90
48860;DHT22;34679;51.436;-2.518;2023-06-14T03:42:42;14.40;99.90
48860;DHT22;34679;51.436;-2.518;2023-06-14T03:45:08;14.20;99.90
48860;DHT22;34679;51.436;-2.518;2023-06-14T03:47:34;14.10;99.90
48860;DHT22;34679;51.436;-2.518;2023-06-14T03:50:00;14.00;99.90
48860;DHT22;34679;51.436;-2.518;2023-06-14T03:52:27;14.00;99.90
48860;DHT22;34679;51.436;-2.518;2023-06-14T03:54:52;13.90;99.90
48860;DHT22;34679;51.436;-2.518;2023-06-14T03:57:19;13.90;99.90
48860;DHT22;34679;51.436;-2.518;2023-06-14T03:59:45;13.90;99.90
48860;DHT22;34679;51.436;-2.518;2023-06-14T04:02:12;14.00;99.90
48860;DHT22;34679;51.436;-2.518;2023-06-14T04:04:41;14.00;99.90
48860;DHT22;34679;51.436;-2.518;2023-06-14T04:07:12;14.10;99.90
48860;DHT22;34679;51.436;-2.518;2023-06-14T04:09:39;14.20;99.90
48860;DHT22;34679;51.436;-2.518;2023-06-14T04:12:06;14.10;99.90
48860;DHT22;34679;51.436;-2.518;2023-06-14T04:14:34;14.20;99.90
48860;DHT22;34679;51.436;-2.518;2023-06-14T04:17:00;14.20;99.90
48860;DHT22;34679;51.436;-2.518;2023-06-14T04:19:26;14.20;99.90
48860;DHT22;34679;51.436;-2.518;2023-06-14T04:21:51;14.30;99.90
48860;DHT22;34679;51.436;-2.518;2023-06-14T04:24:17;14.70;99.90
48860;DHT22;34679;51.436;-2.518;2023-06-14T04:26:44;15.10;99.90
48860;DHT22;34679;51.436;-2.518;2023-06-14T04:29:16;15.60;99.10
48860;DHT22;34679;51.436;-2.518;2023-06-14T04:31:45;16.10;98.50
48860;DHT22;34679;51.436;-2.518;2023-06-14T04:34:12;16.60;98.00
48860;DHT22;34679;51.436;-2.518;2023-06-14T04:36:44;16.80;97.40
48860;DHT22;34679;51.436;-2.518;2023-06-14T04:39:20;17.30;96.70
48860;DHT22;34679;51.436;-2.518;2023-06-14T04:41:46;17.60;95.70
48860;DHT22;34679;51.436;-2.518;2023-06-14T04:44:13;17.50;95.80
48860;DHT22;34679;51.436;-2.518;2023-06-14T04:46:39;17.70;95.90
48860;DHT22;34679;51.436;-2.518;2023-06-14T04:49:17;17.80;95.40
48860;DHT22;34679;51.436;-2.518;2023-06-14T04:51:44;18.30;95.00
48860;DHT22;34679;51.436;-2.518;2023-06-14T04:54:11;18.60;95.00
48860;DHT22;34679;51.436;-2.518;2023-06-14T04:56:39;19.30;94.60
48860;DHT22;34679;51.436;-2.518;2023-06-14T04:59:05;20.00;94.20
48860;DHT22;34679;51.436;-2.518;2023-06-14T05:01:31;20.40;93.40
48860;DHT22;34679;51.436;-2.518;2023-06-14T05:03:58;20.20;93.80
48860;DHT22;34679;51.436;-2.518;2023-06-14T05:06:23;20.50;93.80
48860;DHT22;34679;51.436;-2.518;2023-06-14T05:08:49;20.30;94.00
48860;DHT22;34679;51.436;-2.518;2023-06-14T05:11:16;19.60;94.80
48860;DHT22;34679;51.436;-2.518;2023-06-14T05:13:44;19.90;94.60
48860;DHT22;34679;51.436;-2.518;2023-06-14T05:16:11;19.70;94.80
48860;DHT22;34679;51.436;-2.518;2023-06-14T05:18:37;20.40;94.40
48860;DHT22;34679;51.436;-2.518;2023-06-14T05:21:03;20.80;94.00
48860;DHT22;34679;51.436;-2.518;2023-06-14T05:23:30;21.00;93.80
48860;DHT22;34679;51.436;-2.518;2023-06-14T05:25:56;21.30;93.30
48860;DHT22;34679;51.436;-2.518;2023-06-14T05:28:22;21.20;93.70
48860;DHT22;34679;51.436;-2.518;2023-06-14T05:30:48;21.90;93.00
48860;DHT22;34679;51.436;-2.518;2023-06-14T05:43:30;22.10;92.90
48860;DHT22;34679;51.436;-2.518;2023-06-14T05:45:59;23.40;92.20
48860;DHT22;34679;51.436;-2.518;2023-06-14T05:48:25;23.50;91.80
48860;DHT22;34679;51.436;-2.518;2023-06-14T05:50:51;24.50;91.20
48860;DHT22;34679;51.436;-2.518;2023-06-14T05:53:17;25.20;90.60
48860;DHT22;34679;51.436;-2.518;2023-06-14T05:55:42;25.10;90.70
48860;DHT22;34679;51.436;-2.518;2023-06-14T05:58:08;25.60;90.40
48860;DHT22;34679;51.436;-2.518;2023-06-14T06:00:34;24.90;90.80
48860;DHT22;34679;51.436;-2.518;2023-06-14T06:02:59;24.40;91.20
48860;DHT22;34679;51.436;-2.518;2023-06-14T06:05:26;25.20;90.50
48860;DHT22;34679;51.436;-2.518;2023-06-14T06:07:52;26.00;90.20
48860;DHT22;34679;51.436;-2.518;2023-06-14T06:10:17;25.70;90.00
48860;DHT22;34679;51.436;-2.518;2023-06-14T06:12:43;26.30;89.80
48860;DHT22;34679;51.436;-2.518;2023-06-14T06:15:09;26.90;88.70
48860;DHT22;34679;51.436;-2.518;2023-06-14T06:17:39;26.40;89.50
48860;DHT22;34679;51.436;-2.518;2023-06-14T06:20:05;25.70;89.40
48860;DHT22;34679;51.436;-2.518;2023-06-14T06:22:34;25.40;89.20
48860;DHT22;34679;51.436;-2.518;2023-06-14T06:24:59;24.10;90.50
48860;DHT22;34679;51.436;-2.518;2023-06-14T06:27:25;25.10;90.20
48860;DHT22;34679;51.436;-2.518;2023-06-14T06:29:51;25.20;89.40
48860;DHT22;34679;51.436;-2.518;2023-06-14T06:32:17;24.50;90.30
48860;DHT22;34679;51.436;-2.518;2023-06-14T06:34:43;24.50;90.50
48860;DHT22;34679;51.436;-2.518;2023-06-14T06:37:09;25.60;89.60
48860;DHT22;34679;51.436;-2.518;2023-06-14T06:39:35;26.30;88.60
48860;DHT22;34679;51.436;-2.518;2023-06-14T06:42:00;26.30;88.00
48860;DHT22;34679;51.436;-2.518;2023-06-14T06:44:26;26.30;88.00
48860;DHT22;34679;51.436;-2.518;2023-06-14T06:46:52;26.30;89.20
48860;DHT22;34679;51.436;-2.518;2023-06-14T06:49:17;26.10;88.30
48860;DHT22;34679;51.436;-2.518;2023-06-14T06:51:44;27.00;88.10
48860;DHT22;34679;51.436;-2.518;2023-06-14T06:54:24;26.10;88.50
48860;DHT22;34679;51.436;-2.518;2023-06-14T06:56:50;25.20;89.70
48860;DHT22;34679;51.436;-2.518;2023-06-14T06:59:15;26.20;89.40
48860;DHT22;34679;51.436;-2.518;2023-06-14T07:01:42;27.60;87.90
48860;DHT22;34679;51.436;-2.518;2023-06-14T07:04:08;27.80;87.20
48860;DHT22;34679;51.436;-2.518;2023-06-14T07:06:33;28.30;87.00
48860;DHT22;34679;51.436;-2.518;2023-06-14T07:08:59;27.70;87.40
48860;DHT22;34679;51.436;-2.518;2023-06-14T07:11:27;27.20;88.50
48860;DHT22;34679;51.436;-2.518;2023-06-14T07:13:52;28.20;87.50
48860;DHT22;34679;51.436;-2.518;2023-06-14T07:16:18;28.40;86.40
48860;DHT22;34679;51.436;-2.518;2023-06-14T07:18:44;28.40;87.00
48860;DHT22;34679;51.436;-2.518;2023-06-14T07:21:09;28.70;86.00
48860;DHT22;34679;51.436;-2.518;2023-06-14T07:23:35;28.10;87.10
48860;DHT22;34679;51.436;-2.518;2023-06-14T07:26:01;27.50;87.00
48860;DHT22;34679;51.436;-2.518;2023-06-14T07:28:27;28.10;86.50
48860;DHT22;34679;51.436;-2.518;2023-06-14T07:30:52;27.00;87.30
48860;DHT22;34679;51.436;-2.518;2023-06-14T07:33:18;26.60;88.70
48860;DHT22;34679;51.436;-2.518;2023-06-14T07:35:44;28.10;86.80
48860;DHT22;34679;51.436;-2.518;2023-06-14T07:38:09;27.00;88.20
48860;DHT22;34679;51.436;-2.518;2023-06-14T07:40:35;26.90;87.60
48860;DHT22;34679;51.436;-2.518;2023-06-14T07:43:02;26.00;88.60
48860;DHT22;34679;51.436;-2.518;2023-06-14T07:45:28;26.40;89.40
48860;DHT22;34679;51.436;-2.518;2023-06-14T07:47:54;27.40;88.30
48860;DHT22;34679;51.436;-2.518;2023-06-14T07:50:19;27.70;87.20
48860;DHT22;34679;51.436;-2.518;2023-06-14T07:52:45;27.30;87.20
48860;DHT22;34679;51.436;-2.518;2023-06-14T07:55:12;27.60;88.40
48860;DHT22;34679;51.436;-2.518;2023-06-14T07:57:38;28.70;86.50
48860;DHT22;34679;51.436;-2.518;2023-06-14T08:00:04;29.70;85.90
48860;DHT22;34679;51.436;-2.518;2023-06-14T08:23:51;29.00;85.00
48860;DHT22;34679;51.436;-2.518;2023-06-14T08:26:18;28.90;84.60
48860;DHT22;34679;51.436;-2.518;2023-06-14T08:28:44;28.80;85.70
48860;DHT22;34679;51.436;-2.518;2023-06-14T08:31:10;28.60;85.20
48860;DHT22;34679;51.436;-2.518;2023-06-14T08:33:35;27.90;86.00
48860;DHT22;34679;51.436;-2.518;2023-06-14T08:36:02;27.90;86.20
48860;DHT22;34679;51.436;-2.518;2023-06-14T08:38:27;27.60;86.70
48860;DHT22;34679;51.436;-2.518;2023-06-14T08:40:57;26.80;86.70
48860;DHT22;34679;51.436;-2.518;2023-06-14T08:43:24;27.90;86.60
48860;DHT22;34679;51.436;-2.518;2023-06-14T08:45:55;26.80;88.00
48860;DHT22;34679;51.436;-2.518;2023-06-14T08:48:26;27.70;87.90
48860;DHT22;34679;51.436;-2.518;2023-06-14T08:50:56;28.40;86.70
48860;DHT22;34679;51.436;-2.518;2023-06-14T08:53:33;28.70;86.40
48860;DHT22;34679;51.436;-2.518;2023-06-14T08:56:03;29.90;83.90
48860;DHT22;34679;51.436;-2.518;2023-06-14T08:58:31;30.70;83.30
48860;DHT22;34679;51.436;-2.518;2023-06-14T09:01:02;30.40;83.30
48860;DHT22;34679;51.436;-2.518;2023-06-14T09:03:28;29.10;85.20
48860;DHT22;34679;51.436;-2.518;2023-06-14T09:05:59;30.20;83.20
48860;DHT22;34679;51.436;-2.518;2023-06-14T09:08:27;29.50;83.30
48860;DHT22;34679;51.436;-2.518;2023-06-14T09:10:57;28.90;84.80
48860;DHT22;34679;51.436;-2.518;2023-06-14T09:13:22;28.40;85.40
48860;DHT22;34679;51.436;-2.518;2023-06-14T09:15:48;29.10;85.20
48860;DHT22;34679;51.436;-2.518;2023-06-14T09:18:15;29.50;83.60
48860;DHT22;34679;51.436;-2.518;2023-06-14T09:20:41;29.30;83.90
48860;DHT22;34679;51.436;-2.518;2023-06-14T09:23:06;29.30;84.80
48860;DHT22;34679;51.436;-2.518;2023-06-14T09:25:42;29.00;85.10
48860;DHT22;34679;51.436;-2.518;2023-06-14T09:28:09;28.70;84.80
48860;DHT22;34679;51.436;-2.518;2023-06-14T09:30:38;29.20;84.70
48860;DHT22;34679;51.436;-2.518;2023-06-14T09:33:04;29.20;83.60
48860;DHT22;34679;51.436;-2.518;2023-06-14T09:35:33;28.90;85.00
48860;DHT22;34679;51.436;-2.518;2023-06-14T09:37:59;29.80;83.00
48860;DHT22;34679;51.436;-2.518;2023-06-14T09:40:25;30.00;84.90
48860;DHT22;34679;51.436;-2.518;2023-06-14T09:42:52;30.50;83.30
48860;DHT22;34679;51.436;-2.518;2023-06-14T09:45:18;30.20;83.80
48860;DHT22;34679;51.436;-2.518;2023-06-14T09:47:49;30.10;84.30
48860;DHT22;34679;51.436;-2.518;2023-06-14T09:50:15;29.80;84.70
48860;DHT22;34679;51.436;-2.518;2023-06-14T09:52:43;29.50;85.00
48860;DHT22;34679;51.436;-2.518;2023-06-14T09:55:12;28.30;84.60
48860;DHT22;34679;51.436;-2.518;2023-06-14T09:57:41;27.50;84.00
48860;DHT22;34679;51.436;-2.518;2023-06-14T10:00:09;28.10;84.90
48860;DHT22;34679;51.436;-2.518;2023-06-14T10:02:38;28.60;85.70
48860;DHT22;34679;51.436;-2.518;2023-06-14T10:05:06;29.20;85.00
48860;DHT22;34679;51.436;-2.518;2023-06-14T10:07:40;29.20;83.90
48860;DHT22;34679;51.436;-2.518;2023-06-14T10:10:07;29.90;81.70
48860;DHT22;34679;51.436;-2.518;2023-06-14T10:12:33;30.80;81.70
48860;DHT22;34679;51.436;-2.518;2023-06-14T10:14:59;30.20;83.00
48860;DHT22;34679;51.436;-2.518;2023-06-14T10:17:43;30.50;81.80
48860;DHT22;34679;51.436;-2.518;2023-06-14T10:20:38;30.90;81.10
48860;DHT22;34679;51.436;-2.518;2023-06-14T10:23:32;30.70;81.30
48860;DHT22;34679;51.436;-2.518;2023-06-14T10:25:59;30.70;81.40
48860;DHT22;34679;51.436;-2.518;2023-06-14T10:28:25;30.80;81.00
48860;DHT22;34679;51.436;-2.518;2023-06-14T10:31:12;28.90;81.00
48860;DHT22;34679;51.436;-2.518;2023-06-14T10:39:16;27.40;85.00
48860;DHT22;34679;51.436;-2.518;2023-06-14T10:51:03;25.90;86.90
48860;DHT22;34679;51.436;-2.518;2023-06-14T10:53:29;25.50;87.80
48860;DHT22;34679;51.436;-2.518;2023-06-14T10:56:07;25.70;89.00
48860;DHT22;34679;51.436;-2.518;2023-06-14T10:58:33;26.10;87.10
48860;DHT22;34679;51.436;-2.518;2023-06-14T11:00:59;26.00;87.00
48860;DHT22;34679;51.436;-2.518;2023-06-14T11:03:36;26.00;87.60
48860;DHT22;34679;51.436;-2.518;2023-06-14T11:06:21;26.00;87.10
48860;DHT22;34679;51.436;-2.518;2023-06-14T11:11:47;25.80;88.00
48860;DHT22;34679;51.436;-2.518;2023-06-14T11:14:13;25.70;87.10
48860;DHT22;34679;51.436;-2.518;2023-06-14T11:16:39;26.00;88.10
48860;DHT22;34679;51.436;-2.518;2023-06-14T11:19:05;25.90;87.70
48860;DHT22;34679;51.436;-2.518;2023-06-14T11:21:34;25.80;87.90
48860;DHT22;34679;51.436;-2.518;2023-06-14T11:24:00;25.80;89.10
48860;DHT22;34679;51.436;-2.518;2023-06-14T11:26:29;25.50;88.80
48860;DHT22;34679;51.436;-2.518;2023-06-14T11:28:57;25.80;88.50
48860;DHT22;34679;51.436;-2.518;2023-06-14T11:31:23;26.20;88.10
48860;DHT22;34679;51.436;-2.518;2023-06-14T11:33:56;26.30;88.70
48860;DHT22;34679;51.436;-2.518;2023-06-14T11:36:23;26.30;88.60
48860;DHT22;34679;51.436;-2.518;2023-06-14T11:38:49;26.10;89.00
48860;DHT22;34679;51.436;-2.518;2023-06-14T11:41:14;26.00;89.80
48860;DHT22;34679;51.436;-2.518;2023-06-14T11:43:40;25.90;89.50
48860;DHT22;34679;51.436;-2.518;2023-06-14T11:46:12;25.60;89.60
48860;DHT22;34679;51.436;-2.518;2023-06-14T11:48:42;25.80;89.70
48860;DHT22;34679;51.436;-2.518;2023-06-14T11:51:08;25.90;90.00
48860;DHT22;34679;51.436;-2.518;2023-06-14T11:53:34;26.10;90.00
48860;DHT22;34679;51.436;-2.518;2023-06-14T11:56:00;25.90;90.10
48860;DHT22;34679;51.436;-2.518;2023-06-14T11:58:26;26.00;89.90
48860;DHT22;34679;51.436;-2.518;2023-06-14T12:00:53;25.90;89.50
48860;DHT22;34679;51.436;-2.518;2023-06-14T12:03:26;25.90;90.30
48860;DHT22;34679;51.436;-2.518;2023-06-14T12:06:08;26.30;87.90
48860;DHT22;34679;51.436;-2.518;2023-06-14T12:08:37;26.40;88.10
48860;DHT22;34679;51.436;-2.518;2023-06-14T12:11:13;26.60;89.70
48860;DHT22;34679;51.436;-2.518;2023-06-14T12:13:41;26.90;89.60
48860;DHT22;34679;51.436;-2.518;2023-06-14T12:16:11;26.50;88.60
48860;DHT22;34679;51.436;-2.518;2023-06-14T12:18:38;26.40;90.00
48860;DHT22;34679;51.436;-2.518;2023-06-14T12:21:08;26.50;90.20
48860;DHT22;34679;51.436;-2.518;2023-06-14T12:23:47;26.50;90.10
48860;DHT22;34679;51.436;-2.518;2023-06-14T12:26:14;26.50;89.90
48860;DHT22;34679;51.436;-2.518;2023-06-14T12:28:42;26.70;90.00
48860;DHT22;34679;51.436;-2.518;2023-06-14T12:31:08;26.80;89.50
48860;DHT22;34679;51.436;-2.518;2023-06-14T12:33:34;26.70;89.40
48860;DHT22;34679;51.436;-2.518;2023-06-14T12:36:03;26.60;88.90
48860;DHT22;34679;51.436;-2.518;2023-06-14T12:38:29;26.80;88.90
48860;DHT22;34679;51.436;-2.518;2023-06-14T12:40:55;26.80;89.10
48860;DHT22;34679;51.436;-2.518;2023-06-14T12:43:21;26.80;88.10
48860;DHT22;34679;51.436;-2.518;2023-06-14T12:45:46;26.80;88.50
48860;DHT22;34679;51.436;-2.518;2023-06-14T12:48:12;26.80;89.30
48860;DHT22;34679;51.436;-2.518;2023-06-14T12:50:38;26.80;88.50
48860;DHT22;34679;51.436;-2.518;2023-06-14T12:53:04;27.00;88.30
48860;DHT22;34679;51.436;-2.518;2023-06-14T12:55:29;26.90;86.40
48860;DHT22;34679;51.436;-2.518;2023-06-14T12:57:55;26.70;87.60
48860;DHT22;34679;51.436;-2.518;2023-06-14T13:00:21;27.10;88.20
48860;DHT22;34679;51.436;-2.518;2023-06-14T13:02:47;26.90;88.60
48860;DHT22;34679;51.436;-2.518;2023-06-14T13:05:13;26.80;86.80
48860;DHT22;34679;51.436;-2.518;2023-06-14T13:07:38;27.00;87.90
48860;DHT22;34679;51.436;-2.518;2023-06-14T13:10:04;26.80;88.20
48860;DHT22;34679;51.436;-2.518;2023-06-14T13:12:30;26.90;86.20
48860;DHT22;34679;51.436;-2.518;2023-06-14T13:14:56;27.00;87.60
48860;DHT22;34679;51.436;-2.518;2023-06-14T13:17:21;26.60;86.20
48860;DHT22;34679;51.436;-2.518;2023-06-14T13:19:47;26.70;87.60
48860;DHT22;34679;51.436;-2.518;2023-06-14T13:22:13;26.70;88.50
48860;DHT22;34679;51.436;-2.518;2023-06-14T13:24:38;26.70;89.00
48860;DHT22;34679;51.436;-2.518;2023-06-14T13:27:04;27.00;89.30
48860;DHT22;34679;51.436;-2.518;2023-06-14T13:29:30;26.80;88.00
48860;DHT22;34679;51.436;-2.518;2023-06-14T13:31:56;26.90;88.30
48860;DHT22;34679;51.436;-2.518;2023-06-14T13:34:22;27.00;88.10
48860;DHT22;34679;51.436;-2.518;2023-06-14T13:36:49;27.00;88.20
48860;DHT22;34679;51.436;-2.518;2023-06-14T13:39:15;26.90;87.80
48860;DHT22;34679;51.436;-2.518;2023-06-14T13:41:41;26.90;88.00
48860;DHT22;34679;51.436;-2.518;2023-06-14T13:44:07;27.30;89.30
48860;DHT22;34679;51.436;-2.518;2023-06-14T13:46:32;27.30;88.10
48860;DHT22;34679;51.436;-2.518;2023-06-14T13:48:58;27.50;88.90
48860;DHT22;34679;51.436;-2.518;2023-06-14T13:51:25;27.60;88.10
48860;DHT22;34679;51.436;-2.518;2023-06-14T13:53:52;27.40;87.70
48860;DHT22;34679;51.436;-2.518;2023-06-14T13:56:19;27.30;86.30
48860;DHT22;34679;51.436;-2.518;2023-06-14T13:58:45;27.40;86.20
48860;DHT22;34679;51.436;-2.518;2023-06-14T14:01:11;27.60;86.30
48860;DHT22;34679;51.436;-2.518;2023-06-14T14:03:37;27.60;86.60
48860;DHT22;34679;51.436;-2.518;2023-06-14T14:06:04;27.90;87.10
48860;DHT22;34679;51.436;-2.518;2023-06-14T14:08:31;27.90;86.40
48860;DHT22;34679;51.436;-2.518;2023-06-14T14:10:57;27.80;86.70
48860;DHT22;34679;51.436;-2.518;2023-06-14T14:13:22;28.00;86.70
48860;DHT22;34679;51.436;-2.518;2023-06-14T14:15:48;28.10;87.00
48860;DHT22;34679;51.436;-2.518;2023-06-14T14:18:17;28.10;87.20
48860;DHT22;34679;51.436;-2.518;2023-06-14T14:20:43;28.30;87.30
48860;DHT22;34679;51.436;-2.518;2023-06-14T14:23:09;28.10;87.00
48860;DHT22;34679;51.436;-2.518;2023-06-14T14:25:35;27.90;87.50
48860;DHT22;34679;51.436;-2.518;2023-06-14T14:28:01;28.10;87.70
48860;DHT22;34679;51.436;-2.518;2023-06-14T14:30:26;28.10;87.00
48860;DHT22;34679;51.436;-2.518;2023-06-14T14:32:53;28.10;86.80
48860;DHT22;34679;51.436;-2.518;2023-06-14T14:35:19;27.80;87.50
48860;DHT22;34679;51.436;-2.518;2023-06-14T14:37:45;27.90;87.40
48860;DHT22;34679;51.436;-2.518;2023-06-14T14:40:11;28.00;88.20
48860;DHT22;34679;51.436;-2.518;2023-06-14T14:42:37;28.10;87.50
48860;DHT22;34679;51.436;-2.518;2023-06-14T14:45:03;28.20;86.80
48860;DHT22;34679;51.436;-2.518;2023-06-14T14:47:29;28.00;87.10
48860;DHT22;34679;51.436;-2.518;2023-06-14T14:49:55;28.00;87.30
48860;DHT22;34679;51.436;-2.518;2023-06-14T14:52:20;28.00;87.70
48860;DHT22;34679;51.436;-2.518;2023-06-14T14:54:46;28.20;87.20
48860;DHT22;34679;51.436;-2.518;2023-06-14T14:57:12;28.40;87.20
48860;DHT22;34679;51.436;-2.518;2023-06-14T14:59:37;28.00;87.60
48860;DHT22;34679;51.436;-2.518;2023-06-14T15:02:03;28.10;88.10
48860;DHT22;34679;51.436;-2.518;2023-06-14T15:04:29;28.30;88.60
48860;DHT22;34679;51.436;-2.518;2023-06-14T15:06:55;28.20;88.00
48860;DHT22;34679;51.436;-2.518;2023-06-14T15:09:21;28.10;88.30
48860;DHT22;34679;51.436;-2.518;2023-06-14T15:11:46;28.30;87.90
48860;DHT22;34679;51.436;-2.518;2023-06-14T15:14:12;28.20;88.00
48860;DHT22;34679;51.436;-2.518;2023-06-14T15:16:38;28.10;88.40
48860;DHT22;34679;51.436;-2.518;2023-06-14T15:19:04;28.20;88.00
48860;DHT22;34679;51.436;-2.518;2023-06-14T15:21:30;28.20;88.30
48860;DHT22;34679;51.436;-2.518;2023-06-14T15:23:55;28.10;88.50
48860;DHT22;34679;51.436;-2.518;2023-06-14T15:26:21;28.00;88.40
48860;DHT22;34679;51.436;-2.518;2023-06-14T15:28:49;27.90;88.00
48860;DHT22;34679;51.436;-2.518;2023-06-14T15:31:14;27.70;88.20
48860;DHT22;34679;51.436;-2.518;2023-06-14T15:33:40;27.50;88.00
48860;DHT22;34679;51.436;-2.518;2023-06-14T15:36:06;27.70;88.30
48860;DHT22;34679;51.436;-2.518;2023-06-14T15:38:35;28.00;88.90
48860;DHT22;34679;51.436;-2.518;2023-06-14T15:41:01;28.20;89.10
48860;DHT22;34679;51.436;-2.518;2023-06-14T15:43:26;28.40;88.10
48860;DHT22;34679;51.436;-2.518;2023-06-14T15:45:52;28.60;88.60
48860;DHT22;34679;51.436;-2.518;2023-06-14T15:48:18;28.90;88.00
48860;DHT22;34679;51.436;-2.518;2023-06-14T15:50:43;29.00;87.60
48860;DHT22;34679;51.436;-2.518;2023-06-14T15:53:10;29.10;87.90
48860;DHT22;34679;51.436;-2.518;2023-06-14T15:55:35;29.20;87.60
48860;DHT22;34679;51.436;-2.518;2023-06-14T15:58:01;29.10;88.30
48860;DHT22;34679;51.436;-2.518;2023-06-14T16:00:27;29.10;87.70
48860;DHT22;34679;51.436;-2.518;2023-06-14T16:02:52;29.20;88.00
48860;DHT22;34679;51.436;-2.518;2023-06-14T16:05:18;29.20;87.90
48860;DHT22;34679;51.436;-2.518;2023-06-14T16:07:44;29.20;88.60